Mapleton, Kansas
Current Conditions -  °F | °C
As of 6:15 PM on Wednesday 22 Oct 2014 (Local Time) from KPTS Reporting Station
Clear Clear  
Wind Chill: 72°   Ceiling: Unl
Heat Index: 72°   Visibility: 10mi
Dew Point: 60°   Wind: 7mph
Humidity: 67%   Direction: 140°SE
Pressure: 30.1"   Gusts: NA
Location:  38.02°N, 94.88°W
Report Text: KPTS 222315Z AUTO 14006KT 10SM CLR 22/16 A3010 RMK AO2 T02200156
Loading
Personal Weather Stations






























Interactive Weather Map
Tropical Storm Tracking
New forecast layout! Learn more

10-Day Weather Forecast

Advertisements
Track Severe Weather on mobile